createdAt,value
2023-04-21T00:00:31.722Z,16.27
2023-04-21T00:01:29.991Z,18.95
2023-04-21T00:02:27.476Z,15.13
2023-04-21T00:03:24.654Z,15.48
2023-04-21T00:04:21.496Z,14.50
2023-04-21T00:05:18.510Z,17.52
2023-04-21T00:06:22.386Z,19.13
2023-04-21T00:07:20.280Z,16.95
2023-04-21T00:08:18.138Z,15.90
2023-04-21T00:09:14.677Z,13.15
2023-04-21T00:10:11.961Z,13.65
2023-04-21T00:11:08.776Z,15.13
2023-04-21T00:12:05.494Z,16.30
2023-04-21T00:13:02.026Z,16.30
2023-04-21T00:13:58.606Z,15.98
2023-04-21T00:14:55.345Z,14.27
2023-04-21T00:15:51.971Z,19.23
2023-04-21T00:16:54.412Z,16.20
2023-04-21T00:17:51.079Z,18.13
2023-04-21T00:18:48.067Z,14.27
2023-04-21T00:19:45.001Z,14.57
2023-04-21T00:20:42.801Z,17.88
2023-04-21T00:21:39.595Z,15.30
2023-04-21T00:22:36.472Z,19.50
2023-04-21T00:23:33.145Z,16.27
2023-04-21T00:24:29.760Z,16.15
2023-04-21T00:25:26.714Z,21.30
2023-04-21T00:26:23.302Z,16.20
2023-04-21T00:27:20.024Z,14.07
2023-04-21T00:28:16.726Z,16.33
2023-04-21T00:29:13.357Z,23.00
2023-04-21T00:30:10.574Z,18.45
2023-04-21T00:31:07.213Z,17.83
2023-04-21T00:32:07.032Z,17.20
2023-04-21T00:33:03.671Z,17.92
2023-04-21T00:34:00.292Z,15.77
2023-04-21T00:34:56.919Z,14.25
2023-04-21T00:35:54.547Z,15.13
2023-04-21T00:36:51.094Z,14.30
2023-04-21T00:37:47.651Z,12.57
2023-04-21T00:38:44.248Z,17.83
2023-04-21T00:39:40.975Z,18.75
2023-04-21T00:40:37.579Z,19.38
2023-04-21T00:41:35.412Z,20.00
2023-04-21T00:42:31.991Z,17.08
2023-04-21T00:43:29.122Z,16.88
2023-04-21T00:44:25.718Z,21.33
2023-04-21T00:45:22.430Z,16.17
2023-04-21T00:46:19.021Z,13.48
2023-04-21T00:47:15.688Z,18.63
2023-04-21T00:48:12.513Z,15.70
2023-04-21T00:49:09.466Z,22.05
2023-04-21T00:50:06.417Z,16.48
2023-04-21T00:51:03.083Z,14.45
2023-04-21T00:52:00.592Z,11.82
2023-04-21T00:52:57.666Z,17.05
2023-04-21T00:53:55.859Z,12.15
2023-04-21T00:54:53.448Z,19.33
2023-04-21T00:55:50.880Z,13.48
2023-04-21T00:56:47.592Z,13.80
2023-04-21T00:57:44.899Z,17.38
2023-04-21T00:58:42.618Z,15.73
2023-04-21T00:59:39.229Z,13.80
2023-04-21T01:00:36.560Z,13.75
2023-04-21T01:01:34.424Z,14.35
2023-04-21T01:02:31.285Z,14.60
2023-04-21T01:03:28.437Z,16.38
2023-04-21T01:04:25.752Z,14.65
2023-04-21T01:05:23.086Z,14.52
2023-04-21T01:06:19.931Z,19.63
2023-04-21T01:07:16.648Z,14.02
2023-04-21T01:08:14.317Z,20.40
2023-04-21T01:09:12.755Z,17.60
2023-04-21T01:10:09.693Z,17.10
2023-04-21T01:11:11.159Z,18.50
2023-04-21T01:12:10.624Z,14.50
2023-04-21T01:13:07.176Z,18.33
2023-04-21T01:14:03.754Z,18.00
2023-04-21T01:15:00.866Z,18.27
2023-04-21T01:15:57.485Z,15.55
2023-04-21T01:16:54.273Z,15.60
2023-04-21T01:17:54.093Z,15.57
2023-04-21T01:18:52.217Z,14.63
2023-04-21T01:19:50.524Z,13.98
2023-04-21T01:20:47.161Z,15.85
2023-04-21T01:21:44.269Z,18.63
2023-04-21T01:22:42.711Z,22.60
2023-04-21T01:23:40.571Z,15.70
2023-04-21T01:24:45.246Z,13.38
2023-04-21T01:25:41.804Z,18.85
2023-04-21T01:26:38.426Z,15.60
2023-04-21T01:27:35.326Z,17.15
2023-04-21T01:28:32.314Z,17.52
2023-04-21T01:29:33.136Z,17.45
2023-04-21T01:30:29.777Z,20.83
2023-04-21T01:31:27.441Z,18.17
2023-04-21T01:32:29.171Z,18.67
2023-04-21T01:33:26.072Z,17.30
2023-04-21T01:34:22.647Z,21.45
2023-04-21T01:35:19.480Z,19.35
2023-04-21T01:36:16.059Z,21.27
2023-04-21T01:37:18.023Z,20.67
2023-04-21T01:38:19.627Z,16.67
2023-04-21T01:39:16.518Z,16.95
2023-04-21T01:40:13.871Z,19.55
2023-04-21T01:41:10.916Z,16.85
2023-04-21T01:42:08.754Z,21.65
2023-04-21T01:43:05.986Z,24.35
2023-04-21T01:44:02.654Z,18.75
2023-04-21T01:45:00.006Z,17.25
2023-04-21T01:45:56.821Z,21.10
2023-04-21T01:46:53.492Z,19.75
2023-04-21T01:47:50.105Z,16.80
2023-04-21T01:48:47.007Z,16.67
2023-04-21T01:49:43.574Z,16.05
2023-04-21T01:50:40.236Z,19.45
2023-04-21T01:51:36.839Z,23.55
2023-04-21T01:52:33.410Z,21.70
2023-04-21T01:53:30.008Z,25.00
2023-04-21T01:54:26.646Z,20.55
2023-04-21T01:55:23.329Z,21.13
2023-04-21T01:56:20.332Z,17.73
2023-04-21T01:57:17.599Z,21.83
2023-04-21T01:58:14.258Z,21.45
2023-04-21T01:59:10.914Z,21.15
2023-04-21T02:00:09.299Z,18.45
2023-04-21T02:01:05.949Z,20.73
2023-04-21T02:02:03.122Z,25.70
2023-04-21T02:02:59.966Z,20.08
2023-04-21T02:03:56.759Z,18.60
2023-04-21T02:04:53.494Z,18.13
2023-04-21T02:05:51.257Z,18.88
2023-04-21T02:06:47.884Z,19.23
2023-04-21T02:07:45.003Z,18.58
2023-04-21T02:08:41.683Z,18.35
2023-04-21T02:09:38.403Z,17.15
2023-04-21T02:10:35.221Z,20.05
2023-04-21T02:11:31.858Z,22.50
2023-04-21T02:12:28.499Z,20.75
2023-04-21T02:13:25.111Z,19.05
2023-04-21T02:14:21.664Z,19.40
2023-04-21T02:15:18.349Z,22.02
2023-04-21T02:16:14.973Z,21.70
2023-04-21T02:17:11.825Z,20.27
2023-04-21T02:18:08.628Z,21.05
2023-04-21T02:19:06.364Z,21.70
2023-04-21T02:20:04.354Z,26.52
2023-04-21T02:21:01.019Z,25.67
2023-04-21T02:21:57.698Z,21.88
2023-04-21T02:22:54.264Z,25.17
2023-04-21T02:23:52.047Z,18.50
2023-04-21T02:24:49.815Z,24.27
2023-04-21T02:25:46.382Z,27.10
2023-04-21T02:26:43.046Z,23.65
2023-04-21T02:27:39.717Z,18.52
2023-04-21T02:28:36.312Z,24.08
2023-04-21T02:29:32.924Z,23.88
2023-04-21T02:30:29.520Z,19.38
2023-04-21T02:31:26.264Z,22.85
2023-04-21T02:32:25.909Z,22.27
2023-04-21T02:33:23.067Z,22.17
2023-04-21T02:34:20.718Z,20.48
2023-04-21T02:35:17.362Z,22.30
2023-04-21T02:36:14.009Z,18.85
2023-04-21T02:37:10.773Z,26.65
2023-04-21T02:38:08.968Z,23.30
2023-04-21T02:39:05.640Z,22.92
2023-04-21T02:40:02.201Z,19.60
2023-04-21T02:40:58.961Z,23.02
2023-04-21T02:41:55.666Z,23.67
2023-04-21T02:42:52.299Z,21.48
2023-04-21T02:43:49.397Z,22.15
2023-04-21T02:44:46.119Z,29.02
2023-04-21T02:45:42.773Z,21.88
2023-04-21T02:46:42.254Z,25.30
2023-04-21T02:47:38.888Z,24.83
2023-04-21T02:48:36.606Z,23.45
2023-04-21T02:49:33.340Z,24.92
2023-04-21T02:50:30.140Z,23.73
2023-04-21T02:51:26.935Z,25.63
2023-04-21T02:52:23.616Z,20.45
2023-04-21T02:53:21.137Z,23.30
2023-04-21T02:54:17.723Z,27.58
2023-04-21T02:55:14.432Z,23.48
2023-04-21T02:56:11.096Z,21.75
2023-04-21T02:57:07.813Z,20.27
2023-04-21T02:58:04.422Z,19.35
2023-04-21T02:59:01.039Z,24.05
2023-04-21T02:59:57.685Z,25.02
2023-04-21T03:00:54.335Z,24.27
2023-04-21T03:01:51.126Z,21.00
2023-04-21T03:02:47.848Z,24.05
2023-04-21T03:03:44.679Z,26.48
2023-04-21T03:04:41.475Z,24.33
2023-04-21T03:05:38.227Z,23.65
2023-04-21T03:06:35.060Z,21.77
2023-04-21T03:07:31.653Z,31.10
2023-04-21T03:08:28.679Z,25.20
2023-04-21T03:09:25.484Z,23.55
2023-04-21T03:10:22.316Z,23.38
2023-04-21T03:11:18.948Z,28.17
2023-04-21T03:12:15.753Z,19.73
2023-04-21T03:13:12.360Z,20.58
2023-04-21T03:14:08.948Z,24.50
2023-04-21T03:15:06.398Z,24.63
2023-04-21T03:16:03.445Z,20.80
2023-04-21T03:17:00.180Z,19.73
2023-04-21T03:17:56.964Z,21.42
2023-04-21T03:18:53.679Z,24.27
2023-04-21T03:19:50.282Z,18.63
2023-04-21T03:20:46.877Z,23.48
2023-04-21T03:21:43.543Z,24.67
2023-04-21T03:22:40.352Z,23.38
2023-04-21T03:23:37.285Z,19.13
2023-04-21T03:24:33.943Z,29.65
2023-04-21T03:25:30.671Z,20.70
2023-04-21T03:26:27.344Z,23.15
2023-04-21T03:27:23.959Z,23.08
2023-04-21T03:28:20.668Z,21.17
2023-04-21T03:29:17.443Z,22.63
2023-04-21T03:30:14.343Z,24.30
2023-04-21T03:31:10.941Z,20.10
2023-04-21T03:32:07.646Z,22.90
2023-04-21T03:33:04.847Z,21.42
2023-04-21T03:34:01.659Z,20.15
2023-04-21T03:34:58.343Z,22.13
2023-04-21T03:35:54.989Z,21.73
2023-04-21T03:36:51.574Z,31.80
2023-04-21T03:37:49.826Z,22.13
2023-04-21T03:38:46.462Z,22.45
2023-04-21T03:39:43.106Z,23.48
2023-04-21T03:40:39.736Z,26.90
2023-04-21T03:41:36.496Z,27.98
2023-04-21T03:42:33.146Z,26.70
2023-04-21T03:43:29.767Z,27.45
2023-04-21T03:44:27.274Z,25.63
2023-04-21T03:45:24.244Z,23.88
2023-04-21T03:46:22.383Z,27.13
2023-04-21T03:47:19.081Z,31.25
2023-04-21T03:48:16.081Z,31.15
2023-04-21T03:49:12.653Z,25.55
2023-04-21T03:50:09.419Z,28.70
2023-04-21T03:51:06.043Z,23.00
2023-04-21T03:52:03.146Z,23.17
2023-04-21T03:52:59.801Z,25.30
2023-04-21T03:53:56.361Z,28.05
2023-04-21T03:54:52.934Z,28.52
2023-04-21T03:55:52.786Z,23.80
2023-04-21T03:56:49.376Z,22.90
2023-04-21T03:57:46.066Z,29.42
2023-04-21T03:58:42.798Z,28.65
2023-04-21T03:59:39.358Z,25.80
2023-04-21T04:00:35.982Z,27.50
2023-04-21T04:01:34.721Z,30.25
2023-04-21T04:02:31.457Z,25.67
2023-04-21T04:03:28.229Z,29.27
2023-04-21T04:04:25.279Z,23.50
2023-04-21T04:05:22.075Z,22.48
2023-04-21T04:06:18.696Z,27.02
2023-04-21T04:07:17.618Z,28.20
2023-04-21T04:08:14.317Z,26.55
2023-04-21T04:09:11.084Z,25.48
2023-04-21T04:10:07.879Z,25.17
2023-04-21T04:11:04.594Z,26.77
2023-04-21T04:12:03.436Z,29.40
2023-04-21T04:13:00.208Z,28.60
2023-04-21T04:13:56.819Z,29.02
2023-04-21T04:14:53.497Z,30.02
2023-04-21T04:15:50.350Z,26.85
2023-04-21T04:16:46.995Z,25.10
2023-04-21T04:17:43.556Z,27.65
2023-04-21T04:18:40.603Z,32.30
2023-04-21T04:19:37.187Z,27.20
2023-04-21T04:20:33.764Z,22.52
2023-04-21T04:21:32.557Z,24.20
2023-04-21T04:22:29.146Z,26.42
2023-04-21T04:23:26.186Z,22.35
2023-04-21T04:24:22.798Z,26.02
2023-04-21T04:25:19.534Z,28.08
2023-04-21T04:26:16.219Z,24.27
2023-04-21T04:27:15.400Z,23.92
2023-04-21T04:28:12.771Z,25.73
2023-04-21T04:29:10.730Z,28.25
2023-04-21T04:30:08.076Z,28.77
2023-04-21T04:31:04.822Z,25.40
2023-04-21T04:32:04.264Z,24.60
2023-04-21T04:33:01.699Z,23.88
2023-04-21T04:33:58.373Z,24.85
2023-04-21T04:34:58.962Z,18.90
2023-04-21T04:35:55.504Z,24.70
2023-04-21T04:36:52.261Z,26.05
2023-04-21T04:37:49.801Z,21.00
2023-04-21T04:38:46.921Z,22.30
2023-04-21T04:39:43.575Z,22.65
2023-04-21T04:40:40.598Z,24.35
2023-04-21T04:41:37.955Z,24.58
2023-04-21T04:42:34.809Z,26.30
2023-04-21T04:43:33.598Z,21.83
2023-04-21T04:44:30.499Z,22.52
2023-04-21T04:45:28.645Z,20.65
2023-04-21T04:46:25.821Z,26.52
2023-04-21T04:47:22.454Z,25.42
2023-04-21T04:48:19.541Z,17.67
2023-04-21T04:49:16.626Z,21.30
2023-04-21T04:50:13.246Z,28.77
2023-04-21T04:51:09.838Z,20.83
2023-04-21T04:52:07.100Z,21.70
2023-04-21T04:53:03.694Z,16.63
2023-04-21T04:54:00.307Z,22.20
2023-04-21T04:54:56.981Z,19.85
2023-04-21T04:55:53.802Z,21.42
2023-04-21T04:56:50.508Z,22.55
2023-04-21T04:57:47.122Z,26.88
2023-04-21T04:58:46.483Z,23.17
2023-04-21T04:59:43.142Z,23.85
2023-04-21T05:00:42.047Z,26.85
2023-04-21T05:01:40.202Z,23.42
2023-04-21T05:02:38.448Z,24.52
2023-04-21T05:03:35.398Z,21.98
2023-04-21T05:04:33.737Z,23.08
2023-04-21T05:05:30.689Z,22.35
2023-04-21T05:06:28.556Z,19.98
2023-04-21T05:07:25.824Z,22.50
2023-04-21T05:08:22.393Z,22.10
2023-04-21T05:09:19.001Z,25.55
2023-04-21T05:10:15.731Z,23.88
2023-04-21T05:11:12.323Z,22.35
2023-04-21T05:12:08.988Z,21.10
2023-04-21T05:13:05.792Z,21.95
2023-04-21T05:14:02.454Z,22.15
2023-04-21T05:14:59.155Z,22.45
2023-04-21T05:15:59.142Z,20.45
2023-04-21T05:16:56.044Z,19.08
2023-04-21T05:17:52.823Z,21.95
2023-04-21T05:18:53.874Z,19.27
2023-04-21T05:19:50.854Z,20.45
2023-04-21T05:20:47.382Z,17.63
2023-04-21T05:21:43.970Z,19.70
2023-04-21T05:22:41.175Z,19.77
2023-04-21T05:23:37.792Z,18.23
2023-04-21T05:24:34.879Z,20.42
2023-04-21T05:25:31.524Z,20.85
2023-04-21T05:26:29.144Z,15.65
2023-04-21T05:27:25.707Z,20.10
2023-04-21T05:28:23.246Z,16.52
2023-04-21T05:29:20.001Z,19.05
2023-04-21T05:30:16.768Z,16.90
2023-04-21T05:31:13.510Z,17.83
2023-04-21T05:32:12.318Z,16.52
2023-04-21T05:33:09.559Z,18.20
2023-04-21T05:34:06.351Z,16.10
2023-04-21T05:35:03.114Z,19.05
2023-04-21T05:35:59.758Z,13.85
2023-04-21T05:36:56.567Z,17.85
2023-04-21T05:37:53.144Z,20.08
2023-04-21T05:38:49.737Z,16.92
2023-04-21T05:39:46.533Z,18.83
2023-04-21T05:40:43.267Z,20.63
2023-04-21T05:41:42.424Z,16.08
2023-04-21T05:42:39.451Z,17.58
2023-04-21T05:43:36.062Z,21.48
2023-04-21T05:44:32.620Z,17.88
2023-04-21T05:45:29.251Z,16.05
2023-04-21T05:46:26.016Z,16.88
2023-04-21T05:47:22.779Z,16.42
2023-04-21T05:48:19.649Z,14.85
2023-04-21T05:49:16.334Z,20.17
2023-04-21T05:50:13.124Z,18.70
2023-04-21T05:51:11.166Z,23.38
2023-04-21T05:52:10.502Z,23.00
2023-04-21T05:53:07.144Z,17.10
2023-04-21T05:54:03.866Z,15.63
2023-04-21T05:55:01.259Z,20.80
2023-04-21T05:55:57.849Z,18.83
2023-04-21T05:56:54.427Z,17.30
2023-04-21T05:57:51.123Z,14.90
2023-04-21T05:58:47.771Z,22.38
2023-04-21T05:59:44.471Z,16.83
2023-04-21T06:00:42.520Z,17.98
2023-04-21T06:01:39.124Z,20.17
2023-04-21T06:02:35.944Z,15.38
2023-04-21T06:03:33.527Z,14.23
2023-04-21T06:04:30.695Z,27.65
2023-04-21T06:05:27.654Z,17.63
2023-04-21T06:06:27.760Z,16.88
2023-04-21T06:07:24.398Z,17.27
2023-04-21T06:08:21.401Z,19.85
2023-04-21T06:09:18.103Z,21.13
2023-04-21T06:10:14.908Z,16.75
2023-04-21T06:11:11.598Z,21.25
2023-04-21T06:12:08.279Z,16.50
2023-04-21T06:13:04.898Z,16.17
2023-04-21T06:14:01.889Z,19.17
2023-04-21T06:14:59.308Z,18.85
2023-04-21T06:15:55.952Z,21.67
2023-04-21T06:16:52.555Z,17.15
2023-04-21T06:17:54.128Z,15.95
2023-04-21T06:18:50.750Z,17.87
2023-04-21T06:19:52.927Z,15.65
2023-04-21T06:20:56.718Z,16.08
2023-04-21T06:21:53.304Z,16.75
2023-04-21T06:22:50.543Z,20.27
2023-04-21T06:23:47.146Z,18.10
2023-04-21T06:24:43.752Z,18.98
2023-04-21T06:25:40.383Z,19.83
2023-04-21T06:26:36.953Z,18.67
2023-04-21T06:27:33.762Z,16.30
2023-04-21T06:28:33.682Z,17.98
2023-04-21T06:29:30.309Z,18.05
2023-04-21T06:30:26.898Z,17.08
2023-04-21T06:31:23.702Z,16.70
2023-04-21T06:32:20.495Z,19.05
2023-04-21T06:33:17.097Z,15.55
2023-04-21T06:34:13.718Z,20.75
2023-04-21T06:35:10.580Z,18.20
2023-04-21T06:36:07.647Z,25.33
2023-04-21T06:37:04.497Z,25.58
2023-04-21T06:38:01.088Z,19.10
2023-04-21T06:38:57.775Z,18.48
2023-04-21T06:39:54.456Z,25.83
2023-04-21T06:40:51.358Z,21.27
2023-04-21T06:41:47.947Z,18.48
2023-04-21T06:42:44.574Z,20.40
2023-04-21T06:43:41.481Z,22.05
2023-04-21T06:44:39.085Z,18.70
2023-04-21T06:45:35.659Z,18.83
2023-04-21T06:46:32.358Z,21.40
2023-04-21T06:47:29.027Z,18.85
2023-04-21T06:48:26.452Z,22.20
2023-04-21T06:49:23.210Z,19.65
2023-04-21T06:50:19.786Z,20.50
2023-04-21T06:51:16.380Z,18.27
2023-04-21T06:52:13.150Z,17.10
2023-04-21T06:53:11.677Z,20.98
2023-04-21T06:54:08.326Z,21.38
2023-04-21T06:55:05.821Z,18.88
2023-04-21T06:56:03.289Z,23.02
2023-04-21T06:56:59.978Z,20.10
2023-04-21T06:57:56.595Z,22.63
2023-04-21T06:58:53.410Z,21.65
2023-04-21T06:59:49.988Z,21.95
2023-04-21T07:00:46.552Z,22.35
2023-04-21T07:01:43.165Z,18.33
2023-04-21T07:02:39.870Z,17.88
2023-04-21T07:03:36.776Z,20.27
2023-04-21T07:04:33.545Z,18.75
2023-04-21T07:05:30.353Z,17.50
2023-04-21T07:06:27.252Z,20.13
2023-04-21T07:07:23.879Z,22.55
2023-04-21T07:08:20.465Z,21.52
2023-04-21T07:09:17.256Z,16.63
2023-04-21T07:10:19.155Z,19.52
2023-04-21T07:11:15.804Z,21.20
2023-04-21T07:12:12.409Z,19.48
2023-04-21T07:13:10.104Z,18.00
2023-04-21T07:14:06.919Z,17.08
2023-04-21T07:15:03.986Z,18.83
2023-04-21T07:16:00.722Z,19.10
2023-04-21T07:16:57.493Z,21.42
2023-04-21T07:17:54.240Z,16.35
2023-04-21T07:18:50.851Z,17.58
2023-04-21T07:19:47.558Z,21.63
2023-04-21T07:20:44.343Z,18.77
2023-04-21T07:21:40.963Z,19.13
2023-04-21T07:22:37.666Z,16.98
2023-04-21T07:23:34.224Z,20.88
2023-04-21T07:24:31.181Z,22.77
2023-04-21T07:25:27.797Z,19.98
2023-04-21T07:26:24.736Z,16.40
2023-04-21T07:27:21.376Z,18.40
2023-04-21T07:28:18.041Z,21.05
2023-04-21T07:29:14.602Z,23.70
2023-04-21T07:30:11.686Z,20.35
2023-04-21T07:31:08.320Z,22.05
2023-04-21T07:32:04.911Z,19.42
2023-04-21T07:33:01.561Z,18.05
2023-04-21T07:33:58.227Z,18.60
2023-04-21T07:34:54.882Z,19.02
2023-04-21T07:35:51.496Z,21.95
2023-04-21T07:36:48.191Z,19.80
2023-04-21T07:37:44.820Z,17.52
2023-04-21T07:38:43.520Z,16.33
2023-04-21T07:39:40.114Z,20.25
2023-04-21T07:40:36.753Z,23.77
2023-04-21T07:41:33.664Z,23.65
2023-04-21T07:42:30.524Z,27.35
2023-04-21T07:43:27.313Z,18.55
2023-04-21T07:44:24.098Z,16.15
2023-04-21T07:45:21.009Z,20.85
2023-04-21T07:46:17.763Z,13.55
2023-04-21T07:47:14.704Z,18.48
2023-04-21T07:48:11.339Z,17.77
2023-04-21T07:49:08.256Z,22.08
2023-04-21T07:50:05.299Z,19.17
2023-04-21T07:51:03.395Z,19.02
2023-04-21T07:52:00.003Z,24.15
2023-04-21T07:52:56.739Z,24.83
2023-04-21T07:53:53.988Z,19.75
2023-04-21T07:54:51.210Z,13.55
2023-04-21T07:55:47.748Z,15.60
2023-04-21T07:56:44.320Z,19.30
2023-04-21T07:57:41.030Z,19.35
2023-04-21T07:58:37.647Z,16.10
2023-04-21T07:59:34.299Z,11.95
2023-04-21T08:00:31.125Z,16.88
2023-04-21T08:01:27.882Z,17.75
2023-04-21T08:02:24.513Z,16.13
2023-04-21T08:03:23.822Z,14.00
2023-04-21T08:04:21.204Z,14.70
2023-04-21T08:05:18.498Z,14.40
2023-04-21T08:06:15.544Z,17.30
2023-04-21T08:07:13.821Z,15.23
2023-04-21T08:08:10.622Z,13.13
2023-04-21T08:09:07.441Z,14.57
2023-04-21T08:10:04.315Z,13.25
2023-04-21T08:11:01.492Z,11.00
2023-04-21T08:11:58.191Z,13.23
2023-04-21T08:12:54.806Z,12.68
2023-04-21T08:13:51.624Z,14.35
2023-04-21T08:14:49.637Z,10.50
2023-04-21T08:15:46.346Z,13.95
2023-04-21T08:16:43.232Z,16.20
2023-04-21T08:17:40.058Z,11.13
2023-04-21T08:18:36.753Z,14.15
2023-04-21T08:19:33.449Z,14.70
2023-04-21T08:20:30.339Z,10.30
2023-04-21T08:21:27.963Z,18.60
2023-04-21T08:22:25.638Z,11.50
2023-04-21T08:23:22.340Z,11.93
2023-04-21T08:24:19.279Z,15.25
2023-04-21T08:25:16.159Z,13.98
2023-04-21T08:26:13.311Z,12.93
2023-04-21T08:27:10.132Z,14.10
2023-04-21T08:28:06.961Z,13.77
2023-04-21T08:29:05.542Z,12.52
2023-04-21T08:30:02.183Z,14.02
2023-04-21T08:31:00.493Z,14.77
2023-04-21T08:31:57.192Z,14.27
2023-04-21T08:32:54.016Z,13.50
2023-04-21T08:34:01.305Z,12.88
2023-04-21T08:34:58.857Z,13.63
2023-04-21T08:36:58.195Z,11.10
2023-04-21T08:37:54.809Z,14.25
2023-04-21T08:38:51.457Z,16.75
2023-04-21T08:39:50.894Z,11.70
2023-04-21T08:40:48.042Z,13.40
2023-04-21T08:41:44.805Z,17.20
2023-04-21T08:42:41.953Z,15.70
2023-04-21T08:43:40.675Z,13.65
2023-04-21T08:44:37.470Z,13.00
2023-04-21T08:45:35.101Z,13.55
2023-04-21T08:46:33.551Z,15.25
2023-04-21T08:47:32.225Z,11.77
2023-04-21T08:48:29.889Z,12.02
2023-04-21T08:49:30.942Z,15.95
2023-04-21T08:50:29.715Z,12.35
2023-04-21T08:51:28.787Z,19.83
2023-04-21T08:52:25.646Z,17.80
2023-04-21T08:53:22.423Z,8.13
2023-04-21T08:54:19.022Z,11.20
2023-04-21T08:55:16.115Z,12.77
2023-04-21T08:56:12.664Z,15.57
2023-04-21T08:57:15.449Z,12.98
2023-04-21T08:58:13.467Z,11.60
2023-04-21T08:59:10.179Z,11.85
2023-04-21T09:00:08.174Z,11.32
2023-04-21T09:01:05.448Z,11.88
2023-04-21T09:02:16.786Z,14.05
2023-04-21T09:03:24.926Z,11.60
2023-04-21T09:04:22.571Z,15.73
2023-04-21T09:05:31.015Z,15.98
2023-04-21T09:06:41.459Z,18.77
2023-04-21T09:07:41.527Z,12.05
2023-04-21T09:08:42.187Z,13.95
2023-04-21T09:09:52.526Z,13.68
2023-04-21T09:10:50.801Z,11.65
2023-04-21T09:11:58.916Z,9.20
2023-04-21T09:12:56.074Z,15.63
2023-04-21T09:13:57.089Z,16.98
2023-04-21T09:14:54.197Z,14.90
2023-04-21T09:15:54.112Z,13.23
2023-04-21T09:17:01.218Z,10.27
2023-04-21T09:17:57.961Z,9.00
2023-04-21T09:18:54.735Z,9.75
2023-04-21T09:19:51.496Z,9.98
2023-04-21T09:20:50.843Z,9.50
2023-04-21T09:21:47.467Z,11.00
2023-04-21T09:22:44.937Z,9.88
2023-04-21T09:23:45.503Z,11.38
2023-04-21T09:24:49.519Z,9.35
2023-04-21T09:25:46.201Z,9.93
2023-04-21T09:26:42.914Z,12.45
2023-04-21T09:27:41.642Z,15.02
2023-04-21T09:28:44.781Z,9.00
2023-04-21T09:29:48.180Z,12.15
2023-04-21T09:30:45.201Z,12.70
2023-04-21T09:31:44.449Z,11.60
2023-04-21T09:32:41.763Z,11.48
2023-04-21T09:33:49.596Z,13.25
2023-04-21T09:35:01.017Z,9.02
2023-04-21T09:36:01.570Z,8.05
2023-04-21T09:37:05.117Z,11.80
2023-04-21T09:38:12.408Z,10.73
2023-04-21T09:40:12.834Z,9.43
2023-04-21T09:41:09.435Z,11.55
2023-04-21T09:42:06.609Z,13.32
2023-04-21T09:43:03.342Z,18.80
2023-04-21T09:44:04.723Z,14.88
2023-04-21T09:45:28.436Z,16.10
2023-04-21T09:46:19.694Z,11.05
2023-04-21T09:47:17.040Z,12.18
2023-04-21T09:48:17.573Z,12.82
2023-04-21T09:49:17.560Z,14.15
2023-04-21T09:50:16.338Z,11.13
2023-04-21T09:51:28.733Z,10.95
2023-04-21T09:52:33.759Z,14.60
2023-04-21T09:53:35.145Z,13.20
2023-04-21T09:54:33.124Z,10.25
2023-04-21T09:55:31.247Z,10.77
2023-04-21T09:56:30.256Z,9.00
2023-04-21T09:57:28.916Z,10.20
2023-04-21T09:58:31.408Z,9.35
2023-04-21T10:00:33.583Z,13.45
2023-04-21T10:01:30.930Z,12.80
2023-04-21T10:02:31.398Z,12.02
2023-04-21T10:03:29.865Z,9.68
2023-04-21T10:04:29.411Z,7.57
2023-04-21T10:05:26.630Z,9.15
2023-04-21T10:06:23.570Z,13.63
2023-04-21T10:07:20.201Z,10.82
2023-04-21T10:08:17.450Z,12.25
2023-04-21T10:09:18.419Z,11.82
2023-04-21T10:10:28.345Z,8.80
2023-04-21T10:11:25.035Z,9.50
2023-04-21T10:12:22.772Z,9.30
2023-04-21T10:13:19.544Z,11.80
2023-04-21T10:14:16.232Z,8.25
2023-04-21T10:15:32.574Z,13.32
2023-04-21T10:16:29.324Z,7.85
2023-04-21T10:17:26.892Z,6.57
2023-04-21T10:18:25.270Z,9.68
2023-04-21T10:19:27.039Z,7.93
2023-04-21T10:20:23.611Z,12.20
2023-04-21T10:21:22.195Z,8.38
2023-04-21T10:22:30.045Z,14.70
2023-04-21T10:23:33.047Z,11.02
2023-04-21T10:24:30.874Z,15.48
2023-04-21T10:25:29.759Z,15.38
2023-04-21T10:26:32.637Z,14.85
2023-04-21T10:27:34.737Z,11.38
2023-04-21T10:29:00.215Z,10.27
2023-04-21T10:29:58.655Z,12.18
2023-04-21T10:31:33.712Z,9.27
2023-04-21T10:32:43.414Z,10.77
2023-04-21T10:33:40.049Z,8.85
2023-04-21T10:34:41.256Z,9.30
2023-04-21T10:36:00.243Z,10.00
2023-04-21T10:36:57.297Z,9.93
2023-04-21T10:37:54.070Z,12.07
2023-04-21T10:38:57.231Z,12.00
2023-04-21T10:39:55.532Z,9.55
2023-04-21T10:40:52.117Z,12.70
2023-04-21T10:41:48.729Z,11.38
2023-04-21T10:42:45.384Z,6.65
2023-04-21T10:43:49.255Z,7.45
2023-04-21T10:44:56.513Z,8.48
2023-04-21T10:45:55.864Z,6.85
2023-04-21T10:46:54.021Z,7.70
2023-04-21T10:47:53.049Z,5.72
2023-04-21T10:48:52.965Z,6.63
2023-04-21T10:49:50.098Z,6.50
2023-04-21T10:50:48.866Z,5.28
2023-04-21T10:52:03.440Z,4.40
2023-04-21T10:53:10.300Z,4.68
2023-04-21T10:54:06.939Z,5.43
2023-04-21T10:55:04.032Z,3.42
2023-04-21T10:56:01.087Z,3.58
2023-04-21T10:56:59.327Z,5.32
2023-04-21T10:57:56.389Z,5.15
2023-04-21T10:58:53.450Z,6.30
2023-04-21T10:59:50.106Z,6.00
2023-04-21T11:00:46.994Z,6.25
2023-04-21T11:01:43.639Z,7.50
2023-04-21T11:02:41.863Z,4.55
2023-04-21T11:03:41.210Z,6.35
2023-04-21T11:04:45.274Z,4.80
2023-04-21T11:05:42.603Z,8.13
2023-04-21T11:06:39.274Z,4.70
2023-04-21T11:07:36.020Z,4.13
2023-04-21T11:08:32.596Z,5.25
2023-04-21T11:09:29.271Z,5.82
2023-04-21T11:10:25.881Z,5.32
2023-04-21T11:11:27.122Z,5.47
2023-04-21T11:12:47.106Z,5.07
2023-04-21T11:13:43.699Z,3.85
2023-04-21T11:14:41.908Z,13.15
2023-04-21T11:15:40.918Z,3.40
2023-04-21T11:16:38.102Z,7.75
2023-04-21T11:17:36.261Z,11.93
2023-04-21T11:18:43.981Z,19.20
2023-04-21T11:19:40.753Z,11.85
2023-04-21T11:20:41.647Z,4.82
2023-04-21T11:21:38.565Z,8.40
2023-04-21T11:22:37.259Z,4.95
2023-04-21T11:23:33.911Z,4.25
2023-04-21T11:24:31.712Z,7.80
2023-04-21T11:25:28.364Z,12.35
2023-04-21T11:26:40.860Z,9.68
2023-04-21T11:27:37.538Z,12.52
2023-04-21T11:28:34.175Z,4.45
2023-04-21T11:29:30.910Z,11.38
2023-04-21T11:30:35.108Z,6.28
2023-04-21T11:31:32.670Z,6.38
2023-04-21T11:32:29.565Z,5.00
2023-04-21T11:33:29.307Z,7.30
2023-04-21T11:34:26.946Z,7.03
2023-04-21T11:35:23.753Z,7.05
2023-04-21T11:36:22.079Z,4.15
2023-04-21T11:37:29.897Z,7.43
2023-04-21T11:38:26.606Z,7.25
2023-04-21T11:39:23.703Z,8.07
2023-04-21T11:40:20.518Z,9.88
2023-04-21T11:41:25.599Z,6.47
2023-04-21T11:42:22.906Z,7.78
2023-04-21T11:43:21.286Z,4.70
2023-04-21T11:44:41.339Z,7.47
2023-04-21T11:45:38.228Z,6.93
2023-04-21T11:46:37.373Z,5.88
2023-04-21T11:47:34.089Z,4.70
2023-04-21T11:48:30.734Z,7.25
2023-04-21T11:49:30.726Z,9.20
2023-04-21T11:50:33.970Z,8.25
2023-04-21T11:51:39.718Z,7.22
2023-04-21T11:52:37.686Z,4.93
2023-04-21T11:53:34.379Z,8.48
2023-04-21T11:54:31.102Z,7.05
2023-04-21T11:55:28.896Z,9.50
2023-04-21T11:56:25.572Z,5.65
2023-04-21T11:57:23.145Z,5.43
2023-04-21T11:58:21.394Z,3.92
2023-04-21T11:59:26.394Z,5.78
2023-04-21T12:00:23.042Z,6.93
2023-04-21T12:01:21.597Z,4.63
2023-04-21T12:02:29.419Z,8.25
2023-04-21T12:03:26.576Z,6.03
2023-04-21T12:04:26.014Z,11.10
2023-04-21T12:05:23.885Z,7.75
2023-04-21T12:06:22.052Z,5.55
2023-04-21T12:07:23.006Z,4.30
2023-04-21T12:08:19.682Z,4.93
2023-04-21T12:09:21.040Z,6.78
2023-04-21T12:10:21.505Z,3.92
2023-04-21T12:11:18.303Z,9.23
2023-04-21T12:12:15.446Z,7.15
2023-04-21T12:13:12.409Z,5.68
2023-04-21T12:14:09.174Z,7.80
2023-04-21T12:15:07.446Z,7.18
2023-04-21T12:16:04.418Z,9.80
2023-04-21T12:17:01.088Z,4.30
2023-04-21T12:17:57.798Z,4.82
2023-04-21T12:18:56.027Z,5.45
2023-04-21T12:19:52.772Z,7.93
2023-04-21T12:20:53.061Z,6.68
2023-04-21T12:21:58.809Z,9.15
2023-04-21T12:22:56.529Z,4.97
2023-04-21T12:23:53.100Z,6.82
2023-04-21T12:24:49.696Z,5.22
2023-04-21T12:25:47.093Z,7.30
2023-04-21T12:26:44.274Z,5.40
2023-04-21T12:27:59.305Z,8.57
2023-04-21T12:28:56.203Z,8.23
2023-04-21T12:29:52.806Z,6.97
2023-04-21T12:30:49.445Z,5.55
2023-04-21T12:31:46.152Z,5.90
2023-04-21T12:32:42.953Z,9.02
2023-04-21T12:33:40.124Z,8.70
2023-04-21T12:34:36.970Z,6.93
2023-04-21T12:35:34.099Z,4.82